Weather at Texarkana Regional Webb Field

Public forecast

Using degrees Fahrenheit for public forecast. Weather courtesy of forecast.io.

Current aviation weather report (METAR) for Texarkana Regional Webb Field

Retrieved 2020/10/21 20:53 UTC (57 minutes ago):

KTXK 212053Z 17009KT 10SM FEW047 29/18 A3003 RMK AO2 SLP164 T02940178 56022

Aviation forecast (TAF) for Texarkana Regional Webb Field

Retrieved 2020/10/21 18:42 UTC (3 hours ago):

TAF KTXK 211741Z 2118/2218 16009KT P6SM SCT050 FM220100 16005KT P6SM SKC FM220900 VRB03KT 5SM BR FEW030 FM221500 17007KT P6SM SCT050